Time;durP1;ratioP1;P1;durP2;ratioP2;P2;SDS_P1;SDS_P2;PMS_P1;PMS_P2;Temp;Humidity;BMP_temperature;BMP_pressure;BME280_temperature;BME280_humidity;BME280_pressure;Samples;Min_cycle;Max_cycle;Signal;HPM_P1;HPM_P2
2022/08/01 00:00:56;;;;;;;8.55;6.05;;;18.80;99.90;;;;;;7337501;32;20133;-60
2022/08/01 00:04:59;;;;;;;8.95;7.00;;;18.80;99.90;;;;;;7338967;32;20651;-59
2022/08/01 00:09:01;;;;;;;9.15;6.43;;;18.80;99.90;;;;;;7339776;32;20203;-60
2022/08/01 00:13:03;;;;;;;7.85;6.50;;;18.80;99.90;;;;;;7338936;32;20277;-59
2022/08/01 00:17:05;;;;;;;9.02;6.62;;;18.70;99.90;;;;;;7334929;32;20194;-60
2022/08/01 00:21:08;;;;;;;11.52;7.18;;;18.70;99.90;;;;;;7337276;32;20171;-60
2022/08/01 00:25:10;;;;;;;10.20;6.78;;;18.70;99.90;;;;;;7342547;32;20134;-60
2022/08/01 00:29:11;;;;;;;8.50;6.60;;;18.60;99.90;;;;;;7341459;32;20236;-60
2022/08/01 00:33:33;;;;;;;10.15;7.32;;;18.70;99.90;;;;;;7328283;32;20117;-60
2022/08/01 00:37:35;;;;;;;10.68;7.20;;;18.80;99.90;;;;;;7334458;32;20568;-59
2022/08/01 00:41:37;;;;;;;11.10;6.90;;;18.70;99.90;;;;;;7333042;32;20157;-60
2022/08/01 00:45:38;;;;;;;8.00;7.20;;;18.60;99.90;;;;;;7336475;32;20213;-61
2022/08/01 00:49:40;;;;;;;10.45;7.80;;;18.70;99.90;;;;;;7337500;32;20540;-60
2022/08/01 00:53:42;;;;;;;15.05;8.50;;;18.60;99.90;;;;;;7333415;32;20270;-60
2022/08/01 00:58:07;;;;;;;10.27;8.30;;;18.60;99.90;;;;;;7339243;32;20648;-60
2022/08/01 01:02:13;;;;;;;15.13;9.38;;;18.60;99.90;;;;;;7340067;32;20182;-60
2022/08/01 01:06:31;;;;;;;10.60;8.43;;;18.60;99.90;;;;;;7334828;32;20133;-60
2022/08/01 01:10:59;;;;;;;12.07;8.53;;;18.60;99.90;;;;;;7335188;32;20271;-60
2022/08/01 01:15:11;;;;;;;10.43;8.85;;;18.60;99.90;;;;;;7338316;32;20096;-60
2022/08/01 01:19:22;;;;;;;13.00;9.23;;;18.60;99.90;;;;;;7329834;32;20224;-60
2022/08/01 01:23:45;;;;;;;10.57;9.00;;;18.60;99.90;;;;;;7338144;32;20115;-60
2022/08/01 01:28:14;;;;;;;12.15;8.95;;;18.60;99.90;;;;;;7336324;32;20459;-60
2022/08/01 01:32:33;;;;;;;16.05;9.48;;;18.60;99.90;;;;;;7335511;32;20172;-60
2022/08/01 01:36:36;;;;;;;14.40;9.63;;;18.60;99.90;;;;;;7338198;32;20175;-60
2022/08/01 01:40:39;;;;;;;16.00;10.15;;;18.60;99.90;;;;;;7334986;32;20123;-60
2022/08/01 01:44:44;;;;;;;14.38;10.52;;;18.50;99.90;;;;;;7331929;32;20171;-60
2022/08/01 01:48:46;;;;;;;12.43;9.27;;;18.50;99.90;;;;;;7340751;32;20243;-60
2022/08/01 01:52:49;;;;;;;11.18;9.07;;;18.60;99.90;;;;;;7338906;32;20171;-60
2022/08/01 01:56:52;;;;;;;16.35;9.70;;;18.50;99.90;;;;;;7339331;32;20187;-60
2022/08/01 02:00:58;;;;;;;14.87;9.60;;;18.50;99.90;;;;;;7333682;32;20233;-60
2022/08/01 02:05:06;;;;;;;10.40;9.00;;;18.50;99.90;;;;;;7338786;32;20673;-61
2022/08/01 02:09:09;;;;;;;17.58;10.25;;;18.40;99.90;;;;;;7336911;32;20145;-61
2022/08/01 02:13:21;;;;;;;12.02;9.93;;;18.40;99.90;;;;;;7333152;32;20199;-60
2022/08/01 02:17:24;;;;;;;13.00;9.57;;;18.40;99.90;;;;;;7332660;32;20208;-61
2022/08/01 02:21:52;;;;;;;15.45;10.20;;;18.40;99.90;;;;;;7329652;32;20318;-60
2022/08/01 02:25:56;;;;;;;14.80;8.43;;;18.40;99.90;;;;;;7327824;32;20352;-61
2022/08/01 02:30:14;;;;;;;15.07;9.95;;;18.40;99.90;;;;;;7327715;32;20111;-60
2022/08/01 02:34:18;;;;;;;11.25;9.15;;;18.40;99.90;;;;;;7332847;32;20289;-60
2022/08/01 02:38:23;;;;;;;16.52;9.10;;;18.40;99.90;;;;;;7336617;32;20111;-61
2022/08/01 02:42:27;;;;;;;12.68;9.75;;;18.40;99.90;;;;;;7339249;32;20632;-60
2022/08/01 02:46:38;;;;;;;15.07;9.98;;;18.40;99.90;;;;;;7337820;32;20119;-61
2022/08/01 02:50:43;;;;;;;17.48;11.50;;;18.40;99.90;;;;;;7336647;32;20219;-61
2022/08/01 02:54:48;;;;;;;15.90;12.05;;;18.40;99.90;;;;;;7340495;32;20130;-60
2022/08/01 02:58:51;;;;;;;15.90;11.52;;;18.40;99.90;;;;;;7333858;32;20108;-60
2022/08/01 03:02:56;;;;;;;16.12;10.98;;;18.30;99.90;;;;;;7332902;32;20355;-61
2022/08/01 03:07:00;;;;;;;19.98;11.85;;;18.40;99.90;;;;;;7336076;32;20281;-60
2022/08/01 03:11:04;;;;;;;16.02;12.30;;;18.40;99.90;;;;;;7337252;32;20218;-60
2022/08/01 03:15:08;;;;;;;19.23;12.57;;;18.40;99.90;;;;;;7338965;32;20283;-60
2022/08/01 03:19:12;;;;;;;17.08;13.18;;;18.40;99.90;;;;;;7337019;32;20246;-61
2022/08/01 03:23:16;;;;;;;19.45;13.95;;;18.40;99.90;;;;;;7340571;32;20270;-60
2022/08/01 03:27:20;;;;;;;18.42;13.35;;;18.40;99.90;;;;;;7337634;32;20190;-60
2022/08/01 03:31:23;;;;;;;21.55;14.18;;;18.40;99.90;;;;;;7336536;32;20184;-60
2022/08/01 03:35:33;;;;;;;16.33;13.75;;;18.50;99.90;;;;;;7348422;32;20112;-60
2022/08/01 03:39:44;;;;;;;23.02;14.10;;;18.50;99.90;;;;;;7329623;32;20179;-60
2022/08/01 03:44:00;;;;;;;20.10;14.30;;;18.50;99.90;;;;;;7348936;32;20234;-60
2022/08/01 03:48:09;;;;;;;24.85;15.18;;;18.50;99.90;;;;;;7336946;32;20127;-61
2022/08/01 03:52:12;;;;;;;21.58;15.27;;;18.40;99.90;;;;;;7334318;32;20181;-61
2022/08/01 03:56:19;;;;;;;22.17;15.55;;;18.50;99.90;;;;;;7336712;32;20206;-60
2022/08/01 04:00:21;;;;;;;28.08;16.83;;;18.40;99.90;;;;;;7337765;32;20223;-60
2022/08/01 04:04:23;;;;;;;28.42;17.50;;;18.40;99.90;;;;;;7337481;32;20315;-60
2022/08/01 04:08:35;;;;;;;27.25;17.37;;;18.40;99.90;;;;;;7336398;32;20131;-60
2022/08/01 04:12:37;;;;;;;23.17;17.08;;;18.40;99.90;;;;;;7336607;32;20226;-61
2022/08/01 04:16:39;;;;;;;22.50;17.35;;;18.30;99.90;;;;;;7331363;32;20103;-60
2022/08/01 04:20:41;;;;;;;22.62;16.92;;;18.30;99.90;;;;;;7337108;32;20264;-61
2022/08/01 04:24:50;;;;;;;27.17;17.30;;;18.40;99.90;;;;;;7336558;32;20529;-60
2022/08/01 04:29:00;;;;;;;24.37;17.02;;;18.40;99.90;;;;;;7344271;32;20127;-60
2022/08/01 04:33:05;;;;;;;23.35;16.42;;;18.40;99.90;;;;;;7333568;32;20103;-60
2022/08/01 04:37:10;;;;;;;28.65;17.67;;;18.30;99.90;;;;;;7346542;32;20205;-61
2022/08/01 04:41:15;;;;;;;26.65;18.33;;;18.40;99.90;;;;;;7338166;32;20126;-60
2022/08/01 04:45:18;;;;;;;26.12;17.37;;;18.40;99.90;;;;;;7337696;32;20104;-60
2022/08/01 04:49:20;;;;;;;28.85;18.00;;;18.50;99.90;;;;;;7337013;32;20742;-64
2022/08/01 04:53:22;;;;;;;27.20;18.05;;;18.50;99.90;;;;;;7342720;32;20214;-63
2022/08/01 04:57:24;;;;;;;26.70;18.58;;;18.50;99.90;;;;;;7343864;32;20192;-63
2022/08/01 05:01:25;;;;;;;26.58;19.20;;;18.50;99.90;;;;;;7336475;32;20721;-63
2022/08/01 05:05:27;;;;;;;22.30;18.42;;;18.60;99.90;;;;;;7337314;32;20133;-63
2022/08/01 05:09:30;;;;;;;25.08;18.87;;;18.60;99.90;;;;;;7333624;32;20194;-64
2022/08/01 05:13:32;;;;;;;22.13;18.75;;;18.60;99.90;;;;;;7318903;32;20203;-63
2022/08/01 05:17:34;;;;;;;27.42;19.50;;;18.60;99.90;;;;;;7340791;32;20188;-63
2022/08/01 05:21:35;;;;;;;31.17;19.95;;;18.60;99.90;;;;;;7338089;32;20127;-63
2022/08/01 05:25:38;;;;;;;27.00;19.33;;;18.60;99.90;;;;;;7336371;32;20666;-63
2022/08/01 05:29:58;;;;;;;26.60;19.52;;;18.60;99.90;;;;;;7332594;32;20095;-64
2022/08/01 05:34:01;;;;;;;29.65;21.60;;;18.60;99.90;;;;;;7340165;32;20167;-64
2022/08/01 05:38:03;;;;;;;28.87;21.45;;;18.50;99.90;;;;;;7338670;32;20216;-64
2022/08/01 05:42:05;;;;;;;31.35;21.52;;;18.50;99.90;;;;;;7336358;32;20098;-64
2022/08/01 05:46:08;;;;;;;27.65;20.70;;;18.60;99.90;;;;;;7330443;32;20104;-64
2022/08/01 05:50:10;;;;;;;23.55;19.92;;;18.60;99.90;;;;;;7331869;32;20331;-63
2022/08/01 05:54:11;;;;;;;31.35;19.75;;;18.50;99.90;;;;;;7335793;32;20207;-64
2022/08/01 05:58:13;;;;;;;28.55;20.52;;;18.50;99.90;;;;;;7335599;32;20557;-63
2022/08/01 06:02:15;;;;;;;26.27;20.10;;;18.60;99.90;;;;;;7323725;32;20158;-64
2022/08/01 06:06:17;;;;;;;26.20;21.52;;;18.50;99.90;;;;;;7335278;32;20709;-64
2022/08/01 06:10:19;;;;;;;29.80;23.02;;;18.60;99.90;;;;;;7336600;32;20178;-64
2022/08/01 06:14:20;;;;;;;26.77;21.45;;;18.60;99.90;;;;;;7327675;32;20164;-64
2022/08/01 06:18:22;;;;;;;30.20;22.17;;;18.70;99.90;;;;;;7331497;32;20233;-65
2022/08/01 06:22:24;;;;;;;28.30;21.15;;;18.70;99.90;;;;;;7336418;32;20217;-64
2022/08/01 06:26:26;;;;;;;24.75;19.92;;;18.70;99.90;;;;;;7335503;32;20126;-63
2022/08/01 06:30:28;;;;;;;28.30;21.23;;;18.60;99.90;;;;;;7328060;32;20698;-64
2022/08/01 06:34:29;;;;;;;28.90;18.80;;;18.80;99.90;;;;;;7335083;32;20250;-63
2022/08/01 06:38:31;;;;;;;27.95;21.33;;;18.80;99.90;;;;;;7334935;32;20107;-64
2022/08/01 06:42:36;;;;;;;26.48;21.05;;;18.90;99.90;;;;;;7330149;32;20394;-64
2022/08/01 06:46:38;;;;;;;28.15;21.50;;;19.00;99.90;;;;;;7337980;32;20106;-64
2022/08/01 06:50:40;;;;;;;25.17;19.00;;;19.10;99.90;;;;;;7337427;32;20120;-64
2022/08/01 06:54:42;;;;;;;25.52;19.02;;;19.20;99.90;;;;;;7343471;32;20131;-64
2022/08/01 06:58:44;;;;;;;23.10;17.20;;;19.40;99.90;;;;;;7336970;32;20281;-64
2022/08/01 07:02:45;;;;;;;21.87;16.40;;;19.30;99.90;;;;;;7338839;32;20186;-64
2022/08/01 07:06:47;;;;;;;19.23;14.82;;;19.30;99.90;;;;;;7338006;32;20297;-63
2022/08/01 07:10:49;;;;;;;22.95;16.12;;;19.50;99.90;;;;;;7334685;32;20178;-63
2022/08/01 07:14:51;;;;;;;24.48;17.02;;;19.60;99.90;;;;;;7333704;32;20256;-64
2022/08/01 07:18:53;;;;;;;20.15;16.00;;;19.80;99.90;;;;;;7336809;32;20161;-63
2022/08/01 07:22:55;;;;;;;15.77;12.55;;;19.90;99.90;;;;;;7330250;32;20539;-64
2022/08/01 07:27:00;;;;;;;12.35;8.70;;;19.90;99.90;;;;;;7336851;32;20199;-63
2022/08/01 07:31:22;;;;;;;13.65;9.48;;;19.70;99.90;;;;;;7337407;32;20127;-64
2022/08/01 07:35:24;;;;;;;12.27;9.23;;;20.20;99.90;;;;;;7329956;32;20236;-63
2022/08/01 07:39:26;;;;;;;12.43;9.93;;;20.50;99.90;;;;;;7336973;32;20133;-63
2022/08/01 07:43:29;;;;;;;14.60;9.48;;;20.70;99.90;;;;;;7330108;32;20179;-63
2022/08/01 07:47:38;;;;;;;10.82;9.10;;;20.80;99.90;;;;;;7342297;32;20922;-64
2022/08/01 07:51:39;;;;;;;13.05;7.72;;;20.90;99.90;;;;;;7336937;32;20195;-64
2022/08/01 07:55:41;;;;;;;10.90;7.20;;;21.00;99.90;;;;;;7332345;32;20536;-64
2022/08/01 07:59:46;;;;;;;11.82;7.97;;;21.20;99.90;;;;;;7330896;32;20103;-64
2022/08/01 08:03:48;;;;;;;9.27;7.10;;;21.20;99.90;;;;;;7336401;32;20620;-64
2022/08/01 08:07:50;;;;;;;10.18;6.62;;;21.20;99.90;;;;;;7336830;32;20143;-64
2022/08/01 08:11:51;;;;;;;9.57;6.57;;;21.00;99.90;;;;;;7333903;32;20138;-63
2022/08/01 08:15:53;;;;;;;7.87;5.43;;;20.90;99.90;;;;;;7330073;32;20145;-64
2022/08/01 08:19:55;;;;;;;7.62;5.93;;;21.00;99.90;;;;;;7326421;32;20143;-57
2022/08/01 08:28:17;;;;;;;8.73;4.97;;;21.10;99.90;;;;;;7332314;32;20523;-63
2022/08/01 08:32:20;;;;;;;8.18;5.10;;;21.00;99.90;;;;;;7334535;32;20667;-64
2022/08/01 08:36:22;;;;;;;6.82;3.92;;;20.90;99.90;;;;;;7335508;32;20956;-64
2022/08/01 08:40:35;;;;;;;4.62;3.55;;;21.20;99.90;;;;;;7332620;32;20130;-61
2022/08/01 08:44:41;;;;;;;6.07;4.45;;;21.70;99.90;;;;;;7336040;32;20131;-65
2022/08/01 08:48:45;;;;;;;10.00;4.97;;;21.70;99.90;;;;;;7333393;32;20190;-65
2022/08/01 08:52:48;;;;;;;5.07;3.95;;;21.40;99.90;;;;;;7337139;32;20155;-65
2022/08/01 08:56:54;;;;;;;5.80;3.03;;;21.10;99.90;;;;;;7336648;32;20103;-65
2022/08/01 09:00:56;;;;;;;5.90;2.70;;;21.50;99.90;;;;;;7326505;32;20123;-58
2022/08/01 09:04:58;;;;;;;3.75;2.80;;;22.70;99.90;;;;;;7333787;32;20131;-58
2022/08/01 09:09:00;;;;;;;4.18;3.10;;;23.80;99.90;;;;;;7331279;32;20149;-65
2022/08/01 09:13:13;;;;;;;4.05;2.60;;;24.20;99.90;;;;;;7330408;32;20640;-65
2022/08/01 09:17:16;;;;;;;5.62;2.70;;;23.60;99.90;;;;;;7331677;32;20282;-65
2022/08/01 09:21:27;;;;;;;5.30;2.50;;;23.50;99.90;;;;;;7329307;32;20127;-66
2022/08/01 09:25:33;;;;;;;5.43;3.42;;;23.60;99.90;;;;;;7327649;32;20103;-65
2022/08/01 09:29:51;;;;;;;5.10;3.10;;;23.70;99.90;;;;;;7332425;32;20221;-65
2022/08/01 09:34:03;;;;;;;3.15;2.28;;;23.50;99.90;;;;;;7337871;32;20115;-65
2022/08/01 09:38:14;;;;;;;4.28;1.92;;;23.10;99.90;;;;;;7323748;32;20206;-65
2022/08/01 09:42:20;;;;;;;6.03;1.95;;;23.10;99.90;;;;;;7330868;32;20361;-65
2022/08/01 09:46:30;;;;;;;2.20;1.60;;;23.10;99.90;;;;;;7331427;32;20617;-65
2022/08/01 09:50:41;;;;;;;3.03;1.98;;;23.10;99.90;;;;;;7331084;32;20255;-66
2022/08/01 09:54:56;;;;;;;2.42;1.90;;;23.10;99.90;;;;;;7333014;32;20104;-65
2022/08/01 09:58:59;;;;;;;2.62;1.60;;;23.20;99.90;;;;;;7336213;32;20100;-65
2022/08/01 10:03:21;;;;;;;2.85;2.05;;;24.00;99.90;;;;;;7333325;32;20499;-65
2022/08/01 10:07:25;;;;;;;4.35;2.72;;;24.70;99.90;;;;;;7336391;32;20127;-65
2022/08/01 10:11:44;;;;;;;3.60;2.53;;;25.60;99.90;;;;;;7335368;32;20140;-65
2022/08/01 10:15:46;;;;;;;4.40;2.25;;;25.10;99.90;;;;;;7327880;32;20267;-65
2022/08/01 10:19:54;;;;;;;3.00;1.80;;;24.80;99.90;;;;;;7334031;32;20126;-65
2022/08/01 10:24:00;;;;;;;2.90;2.35;;;24.60;99.90;;;;;;7330953;32;20107;-59
2022/08/01 10:28:14;;;;;;;2.72;2.10;;;23.90;99.90;;;;;;7330872;32;20143;-58
2022/08/01 10:32:20;;;;;;;3.42;2.20;;;23.50;99.90;;;;;;7331308;32;20190;-65
2022/08/01 10:36:23;;;;;;;3.78;1.95;;;23.80;99.90;;;;;;7335407;32;20238;-65
2022/08/01 10:40:33;;;;;;;2.97;1.80;;;24.80;99.90;;;;;;7330251;32;20309;-65
2022/08/01 10:44:37;;;;;;;3.80;1.90;;;25.40;99.90;;;;;;7326654;32;20293;-65
2022/08/01 10:48:49;;;;;;;2.85;1.35;;;25.60;99.90;;;;;;7330360;32;20580;-65
2022/08/01 10:53:18;;;;;;;2.95;1.55;;;25.40;99.90;;;;;;7326663;32;20117;-64
2022/08/01 10:57:46;;;;;;;1.75;1.37;;;25.40;99.90;;;;;;7326764;32;20141;-64
2022/08/01 11:02:02;;;;;;;1.70;1.02;;;25.60;99.90;;;;;;7336894;32;20103;-64
2022/08/01 11:06:04;;;;;;;1.55;1.20;;;25.40;99.90;;;;;;7328020;32;20451;-65
2022/08/01 11:10:37;;;;;;;2.03;0.93;;;25.40;99.90;;;;;;7325687;32;20122;-65
2022/08/01 11:14:58;;;;;;;2.05;1.20;;;25.60;99.90;;;;;;7328371;32;20103;-65
2022/08/01 11:19:00;;;;;;;1.37;1.20;;;25.60;99.90;;;;;;7331411;32;20126;-64
2022/08/01 11:23:04;;;;;;;1.08;0.98;;;25.80;99.90;;;;;;7334302;32;20274;-64
2022/08/01 11:27:22;;;;;;;1.33;1.00;;;25.80;99.90;;;;;;7335475;32;20135;-65
2022/08/01 11:31:26;;;;;;;2.30;0.88;;;26.20;99.90;;;;;;7324825;32;20262;-65
2022/08/01 11:35:28;;;;;;;1.52;1.20;;;26.40;99.90;;;;;;7334504;32;20178;-65
2022/08/01 11:39:30;;;;;;;1.25;1.10;;;26.40;99.90;;;;;;7332341;32;20120;-65
2022/08/01 11:44:08;;;;;;;2.05;1.20;;;26.30;99.90;;;;;;7329979;32;20730;-65
2022/08/01 11:48:19;;;;;;;1.58;1.25;;;25.80;99.90;;;;;;7338167;32;20110;-65
2022/08/01 11:52:26;;;;;;;1.70;1.30;;;25.00;99.90;;;;;;7333155;32;20127;-58
2022/08/01 11:56:28;;;;;;;1.50;1.20;;;25.00;99.90;;;;;;7340153;32;20111;-58
2022/08/01 12:00:32;;;;;;;2.08;1.42;;;25.00;99.90;;;;;;7337204;32;20653;-59
2022/08/01 12:04:50;;;;;;;5.60;1.65;;;24.80;99.90;;;;;;7333729;32;20172;-59
2022/08/01 12:08:52;;;;;;;2.30;1.40;;;24.60;99.90;;;;;;7338418;32;20111;-59
2022/08/01 12:12:58;;;;;;;3.72;1.40;;;24.60;99.90;;;;;;7334011;32;20174;-59
2022/08/01 12:17:00;;;;;;;4.60;1.73;;;25.30;99.90;;;;;;7337586;32;20171;-60
2022/08/01 12:21:04;;;;;;;2.35;1.35;;;25.70;99.90;;;;;;7335472;32;20211;-59
2022/08/01 12:25:08;;;;;;;2.70;1.05;;;25.80;99.90;;;;;;7338159;32;20142;-60
2022/08/01 12:29:10;;;;;;;2.20;1.37;;;25.80;99.90;;;;;;7335896;32;20245;-59
2022/08/01 12:33:18;;;;;;;2.12;1.60;;;25.40;99.90;;;;;;7333572;32;20510;-60
2022/08/01 12:37:20;;;;;;;2.45;1.23;;;24.90;99.90;;;;;;7332365;32;20313;-67
2022/08/01 12:41:22;;;;;;;4.28;1.40;;;24.90;99.90;;;;;;7330150;32;20583;-66
2022/08/01 12:45:26;;;;;;;2.12;1.30;;;24.80;99.90;;;;;;7337928;32;20100;-66
2022/08/01 12:49:28;;;;;;;2.37;1.33;;;24.60;99.90;;;;;;7330616;32;20232;-66
2022/08/01 12:53:34;;;;;;;2.28;1.17;;;24.90;99.90;;;;;;7335231;32;20177;-65
2022/08/01 12:57:45;;;;;;;2.22;1.23;;;24.90;99.90;;;;;;7341873;32;20108;-64
2022/08/01 13:01:46;;;;;;;4.37;1.37;;;25.20;99.90;;;;;;7330557;32;20226;-65
2022/08/01 13:05:57;;;;;;;2.22;1.33;;;25.70;99.90;;;;;;7333333;32;20712;-65
2022/08/01 13:09:59;;;;;;;2.50;1.40;;;25.70;99.90;;;;;;7335666;32;20554;-67
2022/08/01 13:14:01;;;;;;;2.30;1.40;;;25.60;99.90;;;;;;7337208;32;20787;-66
2022/08/01 13:18:23;;;;;;;1.60;1.20;;;25.30;99.90;;;;;;7331498;32;20210;-66
2022/08/01 13:22:36;;;;;;;2.50;1.02;;;25.40;99.90;;;;;;7336053;32;20139;-67
2022/08/01 13:26:48;;;;;;;1.30;1.00;;;25.50;99.90;;;;;;7331957;32;20152;-66
2022/08/01 13:31:00;;;;;;;0.68;0.68;;;25.50;99.90;;;;;;7333316;32;20106;-66
2022/08/01 13:35:04;;;;;;;1.77;0.88;;;25.20;99.90;;;;;;7334348;32;20107;-67
2022/08/01 13:43:27;;;;;;;1.50;0.90;;;25.30;99.90;;;;;;7332395;32;20917;-66
2022/08/01 13:47:48;;;;;;;2.05;1.02;;;25.30;99.90;;;;;;7332255;32;20099;-66
2022/08/01 13:52:10;;;;;;;1.05;0.82;;;25.30;99.90;;;;;;7339888;32;20178;-67
2022/08/01 13:56:12;;;;;;;2.65;1.20;;;25.10;99.90;;;;;;7336956;32;20459;-66
2022/08/01 14:00:14;;;;;;;3.75;1.37;;;24.80;99.90;;;;;;7336246;32;20240;-66
2022/08/01 14:04:16;;;;;;;2.00;1.02;;;24.80;99.90;;;;;;7336228;32;20133;-66
2022/08/01 14:08:18;;;;;;;1.92;1.20;;;24.70;99.90;;;;;;7331724;32;20153;-67
2022/08/01 14:12:20;;;;;;;2.72;1.00;;;24.50;99.90;;;;;;7333521;32;20206;-66
2022/08/01 14:16:24;;;;;;;3.65;0.90;;;24.60;99.90;;;;;;7325452;32;20218;-66
2022/08/01 14:20:26;;;;;;;3.03;0.90;;;24.40;99.90;;;;;;7327068;32;20624;-66
2022/08/01 14:24:28;;;;;;;1.35;1.17;;;24.10;99.90;;;;;;7333790;32;20770;-66
2022/08/01 14:28:30;;;;;;;1.48;1.10;;;24.00;99.90;;;;;;7334711;32;20458;-66
2022/08/01 14:32:33;;;;;;;2.22;1.00;;;24.00;99.90;;;;;;7333099;32;20162;-66
2022/08/01 14:36:34;;;;;;;3.65;1.15;;;24.00;99.90;;;;;;7334296;32;20502;-66
2022/08/01 14:40:40;;;;;;;1.42;0.90;;;24.00;99.90;;;;;;7334216;32;20111;-66
2022/08/01 14:44:42;;;;;;;0.95;0.85;;;24.10;99.90;;;;;;7335529;32;20222;-66
2022/08/01 14:48:50;;;;;;;1.48;1.30;;;24.10;99.90;;;;;;7326759;32;20119;-66
2022/08/01 14:52:53;;;;;;;1.58;1.20;;;24.20;99.90;;;;;;7336825;32;20124;-66
2022/08/01 14:56:54;;;;;;;2.15;1.73;;;24.20;99.90;;;;;;7334198;32;20654;-66
2022/08/01 15:00:56;;;;;;;2.72;1.90;;;24.10;99.90;;;;;;7339856;32;21461;-66
2022/08/01 15:05:00;;;;;;;4.05;1.83;;;24.40;99.90;;;;;;7332239;32;20722;-66
2022/08/01 15:09:02;;;;;;;1.73;1.50;;;24.50;99.90;;;;;;7333871;32;20119;-66
2022/08/01 15:13:10;;;;;;;2.65;2.08;;;24.50;99.90;;;;;;7342423;32;20241;-67
2022/08/01 15:17:11;;;;;;;5.47;1.92;;;24.30;99.90;;;;;;7338072;32;20178;-66
2022/08/01 15:21:13;;;;;;;2.92;1.95;;;24.50;99.90;;;;;;7339470;32;20266;-66
2022/08/01 15:25:35;;;;;;;5.97;2.08;;;24.40;99.90;;;;;;7334403;32;20126;-65
2022/08/01 15:29:43;;;;;;;3.12;1.95;;;24.40;99.90;;;;;;7329217;32;20100;-65
2022/08/01 15:33:44;;;;;;;3.85;1.83;;;24.00;99.90;;;;;;7341682;32;20134;-65
2022/08/01 15:37:46;;;;;;;3.03;1.73;;;23.80;99.90;;;;;;7338921;32;20532;-65
2022/08/01 15:41:48;;;;;;;3.12;1.90;;;23.50;99.90;;;;;;7340856;32;20661;-65
2022/08/01 15:45:50;;;;;;;3.17;1.85;;;23.40;99.90;;;;;;7338871;32;20591;-58
2022/08/01 15:49:52;;;;;;;3.50;2.05;;;23.50;99.90;;;;;;7338372;32;20575;-57
2022/08/01 15:53:53;;;;;;;3.17;2.03;;;23.40;99.90;;;;;;7334986;32;20103;-57
2022/08/01 15:57:55;;;;;;;2.53;1.77;;;23.40;99.90;;;;;;7338454;32;22261;-57
2022/08/01 16:01:57;;;;;;;4.43;2.17;;;23.40;99.90;;;;;;7342864;32;20270;-65
2022/08/01 16:05:59;;;;;;;4.50;2.70;;;23.20;99.90;;;;;;7340829;32;20202;-58
2022/08/01 16:10:00;;;;;;;3.83;1.98;;;23.20;99.90;;;;;;7338018;32;20133;-58
2022/08/01 16:14:02;;;;;;;3.80;2.25;;;23.20;99.90;;;;;;7334385;32;20174;-58
2022/08/01 16:18:23;;;;;;;3.87;2.12;;;23.10;99.90;;;;;;7340763;32;20146;-58
2022/08/01 16:22:43;;;;;;;3.55;1.80;;;23.00;99.90;;;;;;7339886;32;20542;-58
2022/08/01 16:27:04;;;;;;;23.90;6.07;;;22.90;99.90;;;;;;7332303;32;20130;-57
2022/08/01 16:31:06;;;;;;;3.92;1.60;;;22.90;99.90;;;;;;7332162;32;20126;-58
2022/08/01 16:35:28;;;;;;;3.12;1.50;;;23.00;99.90;;;;;;7340041;32;20239;-58
2022/08/01 16:39:37;;;;;;;3.87;2.00;;;23.10;99.90;;;;;;7337188;32;20203;-58
2022/08/01 16:43:39;;;;;;;3.45;1.80;;;23.20;99.90;;;;;;7334902;32;44778;-59
2022/08/01 16:47:47;;;;;;;4.68;2.17;;;23.10;99.90;;;;;;7334596;32;20142;-58
2022/08/01 16:51:49;;;;;;;3.65;2.00;;;23.10;99.90;;;;;;7334608;32;20207;-57
2022/08/01 16:55:51;;;;;;;5.18;1.60;;;23.10;99.90;;;;;;7342449;32;20143;-58
2022/08/01 16:59:52;;;;;;;2.67;1.23;;;23.20;99.90;;;;;;7334838;32;20252;-58
2022/08/01 17:03:54;;;;;;;1.80;0.75;;;23.10;99.90;;;;;;7332016;32;20219;-57
2022/08/01 17:08:11;;;;;;;2.55;1.10;;;23.00;99.90;;;;;;7342379;32;20139;-57
2022/08/01 17:12:12;;;;;;;3.60;1.17;;;23.20;99.90;;;;;;7334149;32;20130;-57
2022/08/01 17:16:23;;;;;;;5.18;1.45;;;23.20;99.90;;;;;;7331626;32;20115;-58
2022/08/01 17:20:24;;;;;;;3.33;1.60;;;23.20;99.90;;;;;;7339148;32;20140;-58
2022/08/01 17:24:26;;;;;;;3.20;1.50;;;23.10;99.90;;;;;;7335326;32;20523;-58
2022/08/01 17:28:28;;;;;;;2.35;1.00;;;23.00;99.90;;;;;;7336264;32;20363;-59
2022/08/01 17:32:30;;;;;;;3.75;1.10;;;23.10;99.90;;;;;;7337138;32;20226;-57
2022/08/01 17:36:31;;;;;;;2.05;0.95;;;23.00;99.90;;;;;;7335367;32;20308;-58
2022/08/01 17:40:33;;;;;;;2.62;1.00;;;22.90;99.90;;;;;;7335534;32;20689;-58
2022/08/01 17:44:42;;;;;;;2.70;0.85;;;22.60;99.90;;;;;;7339423;32;20209;-58
2022/08/01 17:48:49;;;;;;;1.30;0.70;;;22.20;99.90;;;;;;7337075;32;20590;-58
2022/08/01 17:52:51;;;;;;;1.25;0.70;;;22.20;99.90;;;;;;7332361;32;20115;-58
2022/08/01 17:56:53;;;;;;;1.33;0.70;;;22.20;99.90;;;;;;7339204;32;20647;-58
2022/08/01 18:00:55;;;;;;;1.75;0.70;;;22.00;99.90;;;;;;7340567;32;20170;-64
2022/08/01 18:04:57;;;;;;;2.08;1.00;;;22.00;99.90;;;;;;7334871;32;20206;-64
2022/08/01 18:08:59;;;;;;;2.78;0.95;;;22.00;99.90;;;;;;7336943;32;20137;-64
2022/08/01 18:13:02;;;;;;;1.48;1.00;;;21.90;99.90;;;;;;7340689;32;20625;-66
2022/08/01 18:17:07;;;;;;;4.37;0.88;;;21.90;99.90;;;;;;7330571;32;20146;-66
2022/08/01 18:21:12;;;;;;;1.73;0.80;;;21.80;99.90;;;;;;7342115;32;20195;-67
2022/08/01 18:25:14;;;;;;;2.15;0.93;;;21.70;99.90;;;;;;7335278;32;20419;-66
2022/08/01 18:29:17;;;;;;;3.42;1.05;;;21.40;99.90;;;;;;7343154;32;20114;-66
2022/08/01 18:33:39;;;;;;;1.00;0.80;;;21.30;99.90;;;;;;7339985;32;20244;-65
2022/08/01 18:37:41;;;;;;;3.83;1.00;;;21.20;99.90;;;;;;7341668;32;20285;-66
2022/08/01 18:41:56;;;;;;;3.33;0.95;;;21.00;99.90;;;;;;7338660;32;20117;-67
2022/08/01 18:46:00;;;;;;;1.87;1.00;;;20.90;99.90;;;;;;7337097;32;20127;-66
2022/08/01 18:50:02;;;;;;;2.80;1.10;;;20.70;99.90;;;;;;7340090;32;20867;-66
2022/08/01 18:54:03;;;;;;;3.47;1.10;;;20.50;99.90;;;;;;7340812;32;20116;-66
2022/08/01 18:58:05;;;;;;;2.05;1.37;;;20.40;99.90;;;;;;7335670;32;20115;-67
2022/08/01 19:02:07;;;;;;;5.32;1.10;;;20.20;99.90;;;;;;7334831;32;20229;-65
2022/08/01 19:06:09;;;;;;;2.22;1.20;;;19.90;99.90;;;;;;7330051;32;20112;-66
2022/08/01 19:10:11;;;;;;;4.72;1.23;;;19.70;99.90;;;;;;7338015;32;20735;-65
2022/08/01 19:14:12;;;;;;;1.77;1.10;;;19.60;99.90;;;;;;7339559;32;20265;-66
2022/08/01 19:18:14;;;;;;;5.45;1.40;;;19.40;99.90;;;;;;7338179;32;20115;-67
2022/08/01 19:22:17;;;;;;;3.35;1.30;;;19.20;99.90;;;;;;7332171;32;20218;-60
2022/08/01 19:26:25;;;;;;;6.57;1.73;;;19.10;99.90;;;;;;7340082;32;20190;-67
2022/08/01 19:30:30;;;;;;;6.10;1.62;;;18.80;99.90;;;;;;7338748;32;20646;-67
2022/08/01 19:34:35;;;;;;;4.00;1.67;;;18.60;99.90;;;;;;7339082;32;20188;-65
2022/08/01 19:38:37;;;;;;;5.78;2.00;;;18.40;99.90;;;;;;7339867;32;20693;-62
2022/08/01 19:42:40;;;;;;;8.40;1.75;;;18.30;99.90;;;;;;7335405;32;20135;-65
2022/08/01 19:46:43;;;;;;;5.72;1.70;;;18.10;99.90;;;;;;7331792;32;20269;-65
2022/08/01 19:50:47;;;;;;;6.50;1.50;;;18.00;99.90;;;;;;7339535;32;20141;-65
2022/08/01 19:54:52;;;;;;;9.60;2.33;;;17.80;99.90;;;;;;7351246;32;20172;-65
2022/08/01 19:58:55;;;;;;;4.37;1.60;;;17.70;99.90;;;;;;7331856;32;20107;-64
2022/08/01 20:03:02;;;;;;;7.37;1.87;;;17.50;99.90;;;;;;7335324;32;20103;-64
2022/08/01 20:07:13;;;;;;;3.47;1.70;;;17.40;99.90;;;;;;7343195;32;20115;-67
2022/08/01 20:11:16;;;;;;;3.03;1.67;;;17.30;99.90;;;;;;7340545;32;20219;-66
2022/08/01 20:15:23;;;;;;;2.67;1.65;;;17.10;99.90;;;;;;7337334;32;20123;-65
2022/08/01 20:19:25;;;;;;;6.30;1.90;;;17.00;99.90;;;;;;7335364;32;20265;-65
2022/08/01 20:23:30;;;;;;;8.30;1.90;;;16.90;99.90;;;;;;7345186;32;20333;-65
2022/08/01 20:27:31;;;;;;;6.32;1.92;;;16.80;99.90;;;;;;7334932;32;20116;-66
2022/08/01 20:31:35;;;;;;;3.83;2.03;;;16.70;99.90;;;;;;7339299;32;20419;-63
2022/08/01 20:35:45;;;;;;;4.03;1.75;;;16.60;99.90;;;;;;7341656;32;20126;-63
2022/08/01 20:39:57;;;;;;;4.47;1.80;;;16.50;99.90;;;;;;7335649;32;20485;-64
2022/08/01 20:44:00;;;;;;;6.97;2.08;;;16.40;99.90;;;;;;7341114;32;20175;-64
2022/08/01 20:48:02;;;;;;;5.97;2.30;;;16.30;99.90;;;;;;7337624;32;20207;-63
2022/08/01 20:52:04;;;;;;;4.97;1.98;;;16.20;99.90;;;;;;7331595;32;20112;-62
2022/08/01 20:56:36;;;;;;;3.55;1.98;;;16.10;99.90;;;;;;7342785;32;20122;-63
2022/08/01 21:00:38;;;;;;;11.00;2.25;;;16.00;99.90;;;;;;7332530;32;20279;-64
2022/08/01 21:05:01;;;;;;;5.28;2.58;;;15.90;99.90;;;;;;7337716;32;20261;-63
2022/08/01 21:09:05;;;;;;;8.65;2.03;;;15.90;99.90;;;;;;7332707;32;20281;-63
2022/08/01 21:13:12;;;;;;;7.43;2.53;;;15.70;99.90;;;;;;7346455;32;20478;-63
2022/08/01 21:17:59;;;;;;;6.82;2.45;;;15.60;99.90;;;;;;7335593;32;20541;-63